sensor_id;sensor_type;location;lat;lon;timestamp;pressure;altitude;pressure_sealevel;temperature;humidity
7200;BME280;3641;49.082;8.200;2023-02-14T00:00:19;102332.00;;;1.13;92.75
7200;BME280;3641;49.082;8.200;2023-02-14T00:02:46;102327.91;;;1.23;92.23
7200;BME280;3641;49.082;8.200;2023-02-14T00:05:13;102320.56;;;1.26;90.98
7200;BME280;3641;49.082;8.200;2023-02-14T00:07:40;102326.34;;;1.36;90.27
7200;BME280;3641;49.082;8.200;2023-02-14T00:10:07;102315.97;;;1.29;89.95
7200;BME280;3641;49.082;8.200;2023-02-14T00:12:35;102321.22;;;1.13;93.72
7200;BME280;3641;49.082;8.200;2023-02-14T00:15:02;102324.28;;;1.05;93.90
7200;BME280;3641;49.082;8.200;2023-02-14T00:17:46;102323.88;;;1.32;91.12
7200;BME280;3641;49.082;8.200;2023-02-14T00:20:13;102325.22;;;1.23;91.51
7200;BME280;3641;49.082;8.200;2023-02-14T00:22:39;102311.84;;;1.21;91.62
7200;BME280;3641;49.082;8.200;2023-02-14T00:25:06;102317.97;;;1.06;94.02
7200;BME280;3641;49.082;8.200;2023-02-14T00:27:32;102320.03;;;1.01;95.28
7200;BME280;3641;49.082;8.200;2023-02-14T00:30:00;102310.81;;;1.24;91.33
7200;BME280;3641;49.082;8.200;2023-02-14T00:32:27;102302.44;;;0.56;95.00
7200;BME280;3641;49.082;8.200;2023-02-14T00:34:54;102300.50;;;0.40;98.09
7200;BME280;3641;49.082;8.200;2023-02-14T00:37:20;102305.31;;;0.13;98.74
7200;BME280;3641;49.082;8.200;2023-02-14T00:39:47;102307.97;;;0.71;95.36
7200;BME280;3641;49.082;8.200;2023-02-14T00:42:13;102310.28;;;0.98;92.83
7200;BME280;3641;49.082;8.200;2023-02-14T00:44:40;102306.94;;;0.55;96.31
7200;BME280;3641;49.082;8.200;2023-02-14T00:47:08;102312.59;;;0.30;96.15
7200;BME280;3641;49.082;8.200;2023-02-14T00:49:35;102308.56;;;0.59;96.87
7200;BME280;3641;49.082;8.200;2023-02-14T00:52:01;102320.19;;;0.79;93.33
7200;BME280;3641;49.082;8.200;2023-02-14T00:54:28;102312.47;;;0.90;93.36
7200;BME280;3641;49.082;8.200;2023-02-14T00:56:54;102316.38;;;1.02;92.31
7200;BME280;3641;49.082;8.200;2023-02-14T00:59:21;102315.09;;;0.92;93.91
7200;BME280;3641;49.082;8.200;2023-02-14T01:01:47;102310.63;;;1.09;90.96
7200;BME280;3641;49.082;8.200;2023-02-14T01:04:15;102321.25;;;0.75;93.72
7200;BME280;3641;49.082;8.200;2023-02-14T01:06:42;102326.03;;;0.09;97.26
7200;BME280;3641;49.082;8.200;2023-02-14T01:09:08;102319.53;;;0.74;95.46
7200;BME280;3641;49.082;8.200;2023-02-14T01:11:35;102324.38;;;1.03;94.16
7200;BME280;3641;49.082;8.200;2023-02-14T01:14:01;102330.31;;;1.10;91.59
7200;BME280;3641;49.082;8.200;2023-02-14T01:16:28;102331.78;;;0.98;93.53
7200;BME280;3641;49.082;8.200;2023-02-14T01:18:55;102336.81;;;0.87;94.74
7200;BME280;3641;49.082;8.200;2023-02-14T01:21:24;102328.47;;;0.93;94.04
7200;BME280;3641;49.082;8.200;2023-02-14T01:23:53;102327.78;;;1.07;93.04
7200;BME280;3641;49.082;8.200;2023-02-14T01:26:25;102327.47;;;1.13;89.76
7200;BME280;3641;49.082;8.200;2023-02-14T01:28:52;102321.75;;;1.02;90.46
7200;BME280;3641;49.082;8.200;2023-02-14T01:31:21;102319.72;;;1.07;91.34
7200;BME280;3641;49.082;8.200;2023-02-14T01:33:49;102315.13;;;1.09;92.39
7200;BME280;3641;49.082;8.200;2023-02-14T01:36:25;102325.44;;;1.18;89.90
7200;BME280;3641;49.082;8.200;2023-02-14T01:38:53;102324.94;;;1.10;92.53
7200;BME280;3641;49.082;8.200;2023-02-14T01:41:20;102326.91;;;0.68;94.86
7200;BME280;3641;49.082;8.200;2023-02-14T01:43:57;102323.81;;;0.78;97.28
7200;BME280;3641;49.082;8.200;2023-02-14T01:46:25;102332.44;;;1.03;92.89
7200;BME280;3641;49.082;8.200;2023-02-14T01:48:54;102325.75;;;1.12;92.23
7200;BME280;3641;49.082;8.200;2023-02-14T01:51:24;102326.53;;;1.14;92.87
7200;BME280;3641;49.082;8.200;2023-02-14T01:53:51;102329.72;;;1.22;92.11
7200;BME280;3641;49.082;8.200;2023-02-14T01:56:21;102332.25;;;1.25;90.09
7200;BME280;3641;49.082;8.200;2023-02-14T01:58:51;102327.88;;;0.67;95.86
7200;BME280;3641;49.082;8.200;2023-02-14T02:01:26;102323.22;;;0.90;95.64
7200;BME280;3641;49.082;8.200;2023-02-14T02:03:55;102326.69;;;0.73;96.96
7200;BME280;3641;49.082;8.200;2023-02-14T02:06:29;102327.06;;;1.03;93.77
7200;BME280;3641;49.082;8.200;2023-02-14T02:09:03;102327.31;;;1.16;91.97
7200;BME280;3641;49.082;8.200;2023-02-14T02:11:32;102321.53;;;0.68;95.19
7200;BME280;3641;49.082;8.200;2023-02-14T02:13:59;102329.66;;;0.29;99.36
7200;BME280;3641;49.082;8.200;2023-02-14T02:17:02;102316.72;;;0.94;97.45
7200;BME280;3641;49.082;8.200;2023-02-14T02:19:59;102318.19;;;1.01;96.32
7200;BME280;3641;49.082;8.200;2023-02-14T02:22:57;102320.75;;;1.04;94.78
7200;BME280;3641;49.082;8.200;2023-02-14T02:25:47;102313.66;;;1.21;92.61
7200;BME280;3641;49.082;8.200;2023-02-14T02:28:48;102317.91;;;0.88;96.38
7200;BME280;3641;49.082;8.200;2023-02-14T02:34:28;102314.91;;;1.14;95.79
7200;BME280;3641;49.082;8.200;2023-02-14T02:37:13;102311.97;;;0.82;95.89
7200;BME280;3641;49.082;8.200;2023-02-14T02:40:02;102303.81;;;1.02;96.71
7200;BME280;3641;49.082;8.200;2023-02-14T02:42:35;102300.22;;;1.02;96.49
7200;BME280;3641;49.082;8.200;2023-02-14T02:45:11;102306.16;;;0.91;97.38
7200;BME280;3641;49.082;8.200;2023-02-14T02:47:42;102315.94;;;1.11;96.60
7200;BME280;3641;49.082;8.200;2023-02-14T02:50:18;102312.56;;;1.25;93.79
7200;BME280;3641;49.082;8.200;2023-02-14T02:53:06;102310.72;;;1.25;94.96
7200;BME280;3641;49.082;8.200;2023-02-14T02:55:42;102312.63;;;1.23;94.75
7200;BME280;3641;49.082;8.200;2023-02-14T02:58:30;102309.84;;;1.07;97.60
7200;BME280;3641;49.082;8.200;2023-02-14T03:01:01;102299.56;;;1.16;94.64
7200;BME280;3641;49.082;8.200;2023-02-14T03:03:29;102307.97;;;1.27;93.39
7200;BME280;3641;49.082;8.200;2023-02-14T03:06:15;102302.13;;;1.36;93.71
7200;BME280;3641;49.082;8.200;2023-02-14T03:08:42;102300.47;;;1.34;92.07
7200;BME280;3641;49.082;8.200;2023-02-14T03:11:11;102309.81;;;1.44;91.49
7200;BME280;3641;49.082;8.200;2023-02-14T03:13:56;102311.97;;;1.37;93.45
7200;BME280;3641;49.082;8.200;2023-02-14T03:16:32;102306.66;;;1.36;92.31
7200;BME280;3641;49.082;8.200;2023-02-14T03:19:11;102316.13;;;1.43;92.61
7200;BME280;3641;49.082;8.200;2023-02-14T03:21:59;102311.06;;;1.37;93.20
7200;BME280;3641;49.082;8.200;2023-02-14T03:24:42;102305.59;;;1.38;94.21
7200;BME280;3641;49.082;8.200;2023-02-14T03:27:15;102308.72;;;1.12;93.72
7200;BME280;3641;49.082;8.200;2023-02-14T03:29:52;102303.41;;;1.10;94.21
7200;BME280;3641;49.082;8.200;2023-02-14T03:32:28;102306.41;;;1.23;92.74
7200;BME280;3641;49.082;8.200;2023-02-14T03:34:58;102310.34;;;1.33;92.42
7200;BME280;3641;49.082;8.200;2023-02-14T03:37:31;102313.59;;;1.40;92.24
7200;BME280;3641;49.082;8.200;2023-02-14T03:40:05;102317.56;;;0.96;97.47
7200;BME280;3641;49.082;8.200;2023-02-14T03:42:36;102315.22;;;0.88;98.27
7200;BME280;3641;49.082;8.200;2023-02-14T03:45:06;102311.34;;;1.13;95.88
7200;BME280;3641;49.082;8.200;2023-02-14T03:47:35;102315.88;;;1.30;93.20
7200;BME280;3641;49.082;8.200;2023-02-14T03:50:06;102315.00;;;1.12;94.27
7200;BME280;3641;49.082;8.200;2023-02-14T03:52:34;102316.97;;;1.26;94.23
7200;BME280;3641;49.082;8.200;2023-02-14T03:55:05;102310.09;;;1.20;92.33
7200;BME280;3641;49.082;8.200;2023-02-14T03:57:37;102313.44;;;1.25;93.59
7200;BME280;3641;49.082;8.200;2023-02-14T04:00:08;102320.22;;;1.15;92.57
7200;BME280;3641;49.082;8.200;2023-02-14T04:02:36;102321.94;;;1.16;94.06
7200;BME280;3641;49.082;8.200;2023-02-14T04:05:10;102318.72;;;1.27;93.64
7200;BME280;3641;49.082;8.200;2023-02-14T04:07:44;102316.00;;;1.09;93.13
7200;BME280;3641;49.082;8.200;2023-02-14T04:12:41;102323.69;;;1.17;94.47
7200;BME280;3641;49.082;8.200;2023-02-14T04:15:08;102313.22;;;1.11;94.41
7200;BME280;3641;49.082;8.200;2023-02-14T04:17:35;102318.63;;;0.92;95.44
7200;BME280;3641;49.082;8.200;2023-02-14T04:20:19;102318.41;;;0.97;93.52
7200;BME280;3641;49.082;8.200;2023-02-14T04:22:45;102322.06;;;0.58;95.72
7200;BME280;3641;49.082;8.200;2023-02-14T04:25:12;102316.59;;;0.78;94.97
7200;BME280;3641;49.082;8.200;2023-02-14T04:27:38;102320.75;;;0.66;95.55
7200;BME280;3641;49.082;8.200;2023-02-14T04:30:07;102317.34;;;0.82;94.10
7200;BME280;3641;49.082;8.200;2023-02-14T04:32:34;102318.13;;;1.03;93.50
7200;BME280;3641;49.082;8.200;2023-02-14T04:35:00;102320.75;;;1.04;91.98
7200;BME280;3641;49.082;8.200;2023-02-14T04:37:27;102325.84;;;0.72;92.60
7200;BME280;3641;49.082;8.200;2023-02-14T04:39:53;102317.06;;;0.69;95.02
7200;BME280;3641;49.082;8.200;2023-02-14T04:42:20;102312.63;;;0.87;94.48
7200;BME280;3641;49.082;8.200;2023-02-14T04:44:46;102319.88;;;0.85;94.03
7200;BME280;3641;49.082;8.200;2023-02-14T04:47:14;102321.84;;;0.43;94.53
7200;BME280;3641;49.082;8.200;2023-02-14T04:49:40;102317.63;;;0.95;91.80
7200;BME280;3641;49.082;8.200;2023-02-14T04:52:07;102323.00;;;0.57;94.32
7200;BME280;3641;49.082;8.200;2023-02-14T04:54:34;102319.13;;;0.81;93.76
7200;BME280;3641;49.082;8.200;2023-02-14T04:57:00;102314.00;;;0.77;93.99
7200;BME280;3641;49.082;8.200;2023-02-14T04:59:27;102314.72;;;0.99;90.73
7200;BME280;3641;49.082;8.200;2023-02-14T05:01:53;102310.72;;;0.89;91.73
7200;BME280;3641;49.082;8.200;2023-02-14T05:04:21;102304.19;;;0.95;91.18
7200;BME280;3641;49.082;8.200;2023-02-14T05:06:47;102306.81;;;0.96;91.84
7200;BME280;3641;49.082;8.200;2023-02-14T05:09:14;102298.59;;;0.61;92.47
7200;BME280;3641;49.082;8.200;2023-02-14T05:11:40;102297.84;;;0.96;91.27
7200;BME280;3641;49.082;8.200;2023-02-14T05:14:07;102287.97;;;0.96;91.10
7200;BME280;3641;49.082;8.200;2023-02-14T05:16:34;102291.56;;;1.14;89.41
7200;BME280;3641;49.082;8.200;2023-02-14T05:19:00;102297.63;;;1.00;91.00
7200;BME280;3641;49.082;8.200;2023-02-14T05:21:28;102294.22;;;0.97;89.72
7200;BME280;3641;49.082;8.200;2023-02-14T05:23:57;102296.97;;;0.95;90.44
7200;BME280;3641;49.082;8.200;2023-02-14T05:26:24;102302.34;;;0.95;89.92
7200;BME280;3641;49.082;8.200;2023-02-14T05:28:50;102306.50;;;1.02;90.76
7200;BME280;3641;49.082;8.200;2023-02-14T05:31:17;102303.88;;;1.01;90.61
7200;BME280;3641;49.082;8.200;2023-02-14T05:33:43;102311.59;;;0.89;90.19
7200;BME280;3641;49.082;8.200;2023-02-14T05:36:10;102312.03;;;0.99;91.52
7200;BME280;3641;49.082;8.200;2023-02-14T05:38:38;102315.28;;;1.06;90.41
7200;BME280;3641;49.082;8.200;2023-02-14T05:41:04;102314.25;;;1.08;89.99
7200;BME280;3641;49.082;8.200;2023-02-14T05:43:31;102318.84;;;1.06;89.21
7200;BME280;3641;49.082;8.200;2023-02-14T05:45:57;102314.25;;;1.08;91.20
7200;BME280;3641;49.082;8.200;2023-02-14T05:48:24;102314.09;;;1.12;89.46
7200;BME280;3641;49.082;8.200;2023-02-14T05:50:51;102326.25;;;1.01;91.30
7200;BME280;3641;49.082;8.200;2023-02-14T05:53:17;102321.81;;;1.00;92.00
7200;BME280;3641;49.082;8.200;2023-02-14T05:55:46;102323.28;;;0.88;91.28
7200;BME280;3641;49.082;8.200;2023-02-14T05:58:12;102318.97;;;1.03;90.16
7200;BME280;3641;49.082;8.200;2023-02-14T06:00:39;102310.06;;;1.03;89.92
7200;BME280;3641;49.082;8.200;2023-02-14T06:03:05;102313.38;;;1.08;90.39
7200;BME280;3641;49.082;8.200;2023-02-14T06:05:32;102324.72;;;0.96;92.61
7200;BME280;3641;49.082;8.200;2023-02-14T06:07:58;102321.22;;;1.13;89.91
7200;BME280;3641;49.082;8.200;2023-02-14T06:10:25;102313.16;;;1.13;90.72
7200;BME280;3641;49.082;8.200;2023-02-14T06:12:53;102327.03;;;1.22;89.33
7200;BME280;3641;49.082;8.200;2023-02-14T06:15:20;102314.84;;;1.15;89.92
7200;BME280;3641;49.082;8.200;2023-02-14T06:17:50;102316.16;;;1.06;91.91
7200;BME280;3641;49.082;8.200;2023-02-14T06:20:17;102323.28;;;1.07;89.64
7200;BME280;3641;49.082;8.200;2023-02-14T06:22:43;102334.75;;;1.11;90.08
7200;BME280;3641;49.082;8.200;2023-02-14T06:25:10;102329.53;;;1.08;91.05
7200;BME280;3641;49.082;8.200;2023-02-14T06:27:36;102329.88;;;1.19;89.26
7200;BME280;3641;49.082;8.200;2023-02-14T06:30:05;102333.00;;;1.10;90.48
7200;BME280;3641;49.082;8.200;2023-02-14T06:32:32;102334.38;;;1.19;90.72
7200;BME280;3641;49.082;8.200;2023-02-14T06:34:58;102332.47;;;1.21;90.02
7200;BME280;3641;49.082;8.200;2023-02-14T06:37:25;102343.25;;;1.21;89.39
7200;BME280;3641;49.082;8.200;2023-02-14T06:39:51;102336.50;;;1.12;92.01
7200;BME280;3641;49.082;8.200;2023-02-14T06:42:18;102335.31;;;1.18;89.44
7200;BME280;3641;49.082;8.200;2023-02-14T06:44:44;102336.56;;;1.30;89.98
7200;BME280;3641;49.082;8.200;2023-02-14T06:47:12;102335.81;;;1.26;89.80
7200;BME280;3641;49.082;8.200;2023-02-14T06:49:39;102337.47;;;1.29;90.46
7200;BME280;3641;49.082;8.200;2023-02-14T06:52:05;102339.75;;;1.19;90.89
7200;BME280;3641;49.082;8.200;2023-02-14T06:54:32;102335.03;;;1.24;89.43
7200;BME280;3641;49.082;8.200;2023-02-14T06:56:58;102340.81;;;1.34;89.68
7200;BME280;3641;49.082;8.200;2023-02-14T06:59:25;102345.03;;;1.39;88.75
7200;BME280;3641;49.082;8.200;2023-02-14T07:01:51;102341.84;;;1.31;89.99
7200;BME280;3641;49.082;8.200;2023-02-14T07:04:19;102349.56;;;1.39;89.88
7200;BME280;3641;49.082;8.200;2023-02-14T07:06:46;102342.50;;;1.36;89.64
7200;BME280;3641;49.082;8.200;2023-02-14T07:09:12;102340.03;;;1.32;91.38
7200;BME280;3641;49.082;8.200;2023-02-14T07:11:42;102339.56;;;1.41;88.46
7200;BME280;3641;49.082;8.200;2023-02-14T07:14:09;102340.97;;;1.31;90.09
7200;BME280;3641;49.082;8.200;2023-02-14T07:16:35;102337.19;;;1.35;90.27
7200;BME280;3641;49.082;8.200;2023-02-14T07:19:01;102334.81;;;1.46;89.47
7200;BME280;3641;49.082;8.200;2023-02-14T07:21:29;102335.34;;;1.35;90.73
7200;BME280;3641;49.082;8.200;2023-02-14T07:23:56;102334.72;;;1.30;90.04
7200;BME280;3641;49.082;8.200;2023-02-14T07:26:22;102332.09;;;1.29;91.39
7200;BME280;3641;49.082;8.200;2023-02-14T07:28:49;102329.13;;;1.35;90.30
7200;BME280;3641;49.082;8.200;2023-02-14T07:31:16;102338.28;;;1.31;89.99
7200;BME280;3641;49.082;8.200;2023-02-14T07:33:44;102326.03;;;1.42;89.36
7200;BME280;3641;49.082;8.200;2023-02-14T07:36:10;102329.53;;;1.44;89.73
7200;BME280;3641;49.082;8.200;2023-02-14T07:38:38;102331.34;;;1.44;89.79
7200;BME280;3641;49.082;8.200;2023-02-14T07:41:04;102334.34;;;1.38;89.99
7200;BME280;3641;49.082;8.200;2023-02-14T07:43:31;102340.38;;;1.43;89.72
7200;BME280;3641;49.082;8.200;2023-02-14T07:45:58;102336.25;;;1.36;90.18
7200;BME280;3641;49.082;8.200;2023-02-14T07:48:25;102331.81;;;1.35;90.04
7200;BME280;3641;49.082;8.200;2023-02-14T07:50:51;102336.72;;;1.44;89.88
7200;BME280;3641;49.082;8.200;2023-02-14T07:53:20;102337.75;;;1.41;89.45
7200;BME280;3641;49.082;8.200;2023-02-14T07:55:49;102337.81;;;1.40;89.50
7200;BME280;3641;49.082;8.200;2023-02-14T07:58:16;102338.59;;;1.42;90.12
7200;BME280;3641;49.082;8.200;2023-02-14T08:00:43;102342.75;;;1.49;89.47
7200;BME280;3641;49.082;8.200;2023-02-14T08:03:10;102340.13;;;1.48;89.18
7200;BME280;3641;49.082;8.200;2023-02-14T08:05:37;102345.06;;;1.20;92.17
7200;BME280;3641;49.082;8.200;2023-02-14T08:08:03;102340.06;;;1.49;90.14
7200;BME280;3641;49.082;8.200;2023-02-14T08:10:30;102339.97;;;1.51;89.97
7200;BME280;3641;49.082;8.200;2023-02-14T08:12:58;102339.56;;;1.41;90.14
7200;BME280;3641;49.082;8.200;2023-02-14T08:15:23;102342.50;;;1.36;90.89
7200;BME280;3641;49.082;8.200;2023-02-14T08:18:08;102337.66;;;1.43;90.19
7200;BME280;3641;49.082;8.200;2023-02-14T08:20:34;102338.13;;;1.34;90.91
7200;BME280;3641;49.082;8.200;2023-02-14T08:23:01;102328.44;;;1.49;89.20
7200;BME280;3641;49.082;8.200;2023-02-14T08:25:27;102330.34;;;1.27;91.53
7200;BME280;3641;49.082;8.200;2023-02-14T08:27:54;102326.59;;;1.49;88.65
7200;BME280;3641;49.082;8.200;2023-02-14T08:30:22;102326.81;;;1.44;89.62
7200;BME280;3641;49.082;8.200;2023-02-14T08:32:48;102330.53;;;1.42;89.94
7200;BME280;3641;49.082;8.200;2023-02-14T08:35:15;102329.59;;;1.43;89.17
7200;BME280;3641;49.082;8.200;2023-02-14T08:37:41;102325.91;;;1.45;90.16
7200;BME280;3641;49.082;8.200;2023-02-14T08:40:09;102330.97;;;1.52;89.62
7200;BME280;3641;49.082;8.200;2023-02-14T08:42:35;102332.69;;;1.53;89.81
7200;BME280;3641;49.082;8.200;2023-02-14T08:45:02;102332.91;;;1.48;90.21
7200;BME280;3641;49.082;8.200;2023-02-14T08:47:30;102342.38;;;1.57;90.11
7200;BME280;3641;49.082;8.200;2023-02-14T08:50:00;102333.41;;;1.56;89.57
7200;BME280;3641;49.082;8.200;2023-02-14T08:52:26;102334.28;;;1.57;89.10
7200;BME280;3641;49.082;8.200;2023-02-14T08:54:52;102337.69;;;1.60;89.51
7200;BME280;3641;49.082;8.200;2023-02-14T08:57:19;102334.13;;;1.60;89.54
7200;BME280;3641;49.082;8.200;2023-02-14T08:59:45;102337.53;;;1.46;90.67
7200;BME280;3641;49.082;8.200;2023-02-14T09:02:12;102336.50;;;1.49;89.38
7200;BME280;3641;49.082;8.200;2023-02-14T09:04:40;102339.28;;;1.65;88.88
7200;BME280;3641;49.082;8.200;2023-02-14T09:07:06;102331.38;;;1.61;89.36
7200;BME280;3641;49.082;8.200;2023-02-14T09:09:33;102335.16;;;1.57;89.62
7200;BME280;3641;49.082;8.200;2023-02-14T09:12:02;102333.41;;;1.56;89.95
7200;BME280;3641;49.082;8.200;2023-02-14T09:14:29;102331.22;;;1.65;89.70
7200;BME280;3641;49.082;8.200;2023-02-14T09:16:56;102337.78;;;1.59;89.33
7200;BME280;3641;49.082;8.200;2023-02-14T09:19:25;102331.44;;;1.60;90.86
7200;BME280;3641;49.082;8.200;2023-02-14T09:21:53;102332.84;;;1.50;91.48
7200;BME280;3641;49.082;8.200;2023-02-14T09:24:19;102331.22;;;1.65;90.55
7200;BME280;3641;49.082;8.200;2023-02-14T09:26:46;102333.00;;;1.64;90.17
7200;BME280;3641;49.082;8.200;2023-02-14T09:29:12;102334.31;;;1.74;90.07
7200;BME280;3641;49.082;8.200;2023-02-14T09:31:40;102337.63;;;1.79;89.99
7200;BME280;3641;49.082;8.200;2023-02-14T09:34:06;102333.19;;;1.78;88.99
7200;BME280;3641;49.082;8.200;2023-02-14T09:36:50;102333.59;;;1.53;91.93
7200;BME280;3641;49.082;8.200;2023-02-14T09:39:36;102322.81;;;1.53;92.50
7200;BME280;3641;49.082;8.200;2023-02-14T09:42:13;102323.16;;;1.65;91.56
7200;BME280;3641;49.082;8.200;2023-02-14T09:44:46;102328.59;;;1.63;90.94
7200;BME280;3641;49.082;8.200;2023-02-14T09:47:20;102325.34;;;1.74;90.43
7200;BME280;3641;49.082;8.200;2023-02-14T09:49:47;102318.94;;;1.59;90.90
7200;BME280;3641;49.082;8.200;2023-02-14T09:52:17;102314.09;;;1.83;89.18
7200;BME280;3641;49.082;8.200;2023-02-14T09:54:50;102316.78;;;1.83;89.31
7200;BME280;3641;49.082;8.200;2023-02-14T09:57:24;102315.53;;;1.90;89.09
7200;BME280;3641;49.082;8.200;2023-02-14T09:59:58;102318.94;;;1.94;88.53
7200;BME280;3641;49.082;8.200;2023-02-14T10:02:56;102324.56;;;1.89;89.16
7200;BME280;3641;49.082;8.200;2023-02-14T10:05:25;102316.31;;;1.92;89.28
7200;BME280;3641;49.082;8.200;2023-02-14T10:07:59;102318.47;;;1.86;90.30
7200;BME280;3641;49.082;8.200;2023-02-14T10:10:37;102311.16;;;1.88;90.90
7200;BME280;3641;49.082;8.200;2023-02-14T10:13:11;102311.88;;;1.91;89.86
7200;BME280;3641;49.082;8.200;2023-02-14T10:15:42;102318.94;;;1.94;89.53
7200;BME280;3641;49.082;8.200;2023-02-14T10:18:13;102314.72;;;1.88;89.20
7200;BME280;3641;49.082;8.200;2023-02-14T10:20:44;102313.69;;;1.91;91.42
7200;BME280;3641;49.082;8.200;2023-02-14T10:23:28;102312.44;;;1.98;89.76
7200;BME280;3641;49.082;8.200;2023-02-14T10:25:59;102308.94;;;1.96;89.34
7200;BME280;3641;49.082;8.200;2023-02-14T10:28:30;102310.59;;;1.98;89.08
7200;BME280;3641;49.082;8.200;2023-02-14T10:31:04;102312.22;;;1.85;91.40
7200;BME280;3641;49.082;8.200;2023-02-14T10:33:37;102307.47;;;1.73;92.18
7200;BME280;3641;49.082;8.200;2023-02-14T10:36:12;102300.25;;;1.73;92.66
7200;BME280;3641;49.082;8.200;2023-02-14T10:38:47;102297.22;;;1.97;90.43
7200;BME280;3641;49.082;8.200;2023-02-14T10:41:34;102289.38;;;1.92;90.94
7200;BME280;3641;49.082;8.200;2023-02-14T10:44:21;102295.72;;;1.91;91.84
7200;BME280;3641;49.082;8.200;2023-02-14T10:46:56;102299.72;;;2.17;89.38
7200;BME280;3641;49.082;8.200;2023-02-14T10:49:32;102292.66;;;2.15;89.59
7200;BME280;3641;49.082;8.200;2023-02-14T10:52:07;102284.66;;;2.13;90.02
7200;BME280;3641;49.082;8.200;2023-02-14T10:54:43;102282.25;;;2.25;88.71
7200;BME280;3641;49.082;8.200;2023-02-14T10:57:15;102280.69;;;2.21;89.71
7200;BME280;3641;49.082;8.200;2023-02-14T10:59:49;102271.56;;;2.23;89.17
7200;BME280;3641;49.082;8.200;2023-02-14T11:02:21;102283.31;;;2.22;89.87
7200;BME280;3641;49.082;8.200;2023-02-14T11:04:48;102277.06;;;2.38;88.45
7200;BME280;3641;49.082;8.200;2023-02-14T11:07:17;102281.44;;;2.40;88.70
7200;BME280;3641;49.082;8.200;2023-02-14T11:09:44;102269.75;;;2.24;89.48
7200;BME280;3641;49.082;8.200;2023-02-14T11:12:30;102273.75;;;2.32;88.88
7200;BME280;3641;49.082;8.200;2023-02-14T11:15:08;102272.47;;;2.24;89.65
7200;BME280;3641;49.082;8.200;2023-02-14T11:17:35;102275.59;;;2.32;88.81
7200;BME280;3641;49.082;8.200;2023-02-14T11:20:04;102262.72;;;2.37;88.73
7200;BME280;3641;49.082;8.200;2023-02-14T11:22:47;102261.97;;;2.35;88.99
7200;BME280;3641;49.082;8.200;2023-02-14T11:25:18;102252.91;;;2.36;89.28
7200;BME280;3641;49.082;8.200;2023-02-14T11:27:47;102252.28;;;2.31;89.65
7200;BME280;3641;49.082;8.200;2023-02-14T11:30:21;102247.88;;;2.30;89.64
7200;BME280;3641;49.082;8.200;2023-02-14T11:32:50;102251.19;;;2.35;88.99
7200;BME280;3641;49.082;8.200;2023-02-14T11:35:21;102243.78;;;2.39;89.26
7200;BME280;3641;49.082;8.200;2023-02-14T11:37:52;102237.53;;;2.38;89.55
7200;BME280;3641;49.082;8.200;2023-02-14T11:40:28;102240.75;;;2.45;90.02
7200;BME280;3641;49.082;8.200;2023-02-14T11:42:58;102231.09;;;2.41;90.46
7200;BME280;3641;49.082;8.200;2023-02-14T11:45:28;102227.28;;;2.45;90.11
7200;BME280;3641;49.082;8.200;2023-02-14T11:48:07;102230.75;;;2.47;89.55
7200;BME280;3641;49.082;8.200;2023-02-14T11:50:35;102213.88;;;2.59;88.28
7200;BME280;3641;49.082;8.200;2023-02-14T11:53:03;102223.34;;;2.66;88.04
7200;BME280;3641;49.082;8.200;2023-02-14T11:55:32;102215.81;;;2.57;88.50
7200;BME280;3641;49.082;8.200;2023-02-14T11:58:02;102220.56;;;2.52;89.76
7200;BME280;3641;49.082;8.200;2023-02-14T12:00:30;102218.84;;;2.67;88.90
7200;BME280;3641;49.082;8.200;2023-02-14T12:02:59;102215.47;;;2.63;88.45
7200;BME280;3641;49.082;8.200;2023-02-14T12:05:29;102211.78;;;2.64;88.80
7200;BME280;3641;49.082;8.200;2023-02-14T12:07:58;102209.88;;;2.50;89.03
7200;BME280;3641;49.082;8.200;2023-02-14T12:10:28;102201.69;;;2.52;88.79
7200;BME280;3641;49.082;8.200;2023-02-14T12:12:57;102208.31;;;2.46;90.30
7200;BME280;3641;49.082;8.200;2023-02-14T12:15:29;102201.69;;;2.52;89.82
7200;BME280;3641;49.082;8.200;2023-02-14T12:18:16;102201.44;;;2.57;89.75
7200;BME280;3641;49.082;8.200;2023-02-14T12:20:48;102197.03;;;2.56;90.16
7200;BME280;3641;49.082;8.200;2023-02-14T12:23:23;102199.00;;;2.68;88.94
7200;BME280;3641;49.082;8.200;2023-02-14T12:25:56;102196.75;;;2.76;88.91
7200;BME280;3641;49.082;8.200;2023-02-14T12:28:27;102195.00;;;2.75;88.58
7200;BME280;3641;49.082;8.200;2023-02-14T12:30:57;102185.84;;;2.94;87.48
7200;BME280;3641;49.082;8.200;2023-02-14T12:33:24;102177.28;;;3.01;87.34
7200;BME280;3641;49.082;8.200;2023-02-14T12:35:54;102174.59;;;3.01;86.90
7200;BME280;3641;49.082;8.200;2023-02-14T12:38:32;102172.94;;;2.99;87.23
7200;BME280;3641;49.082;8.200;2023-02-14T12:41:17;102165.13;;;2.94;87.96
7200;BME280;3641;49.082;8.200;2023-02-14T12:43:47;102172.03;;;2.68;88.06
7200;BME280;3641;49.082;8.200;2023-02-14T12:46:29;102167.78;;;2.80;88.29
7200;BME280;3641;49.082;8.200;2023-02-14T12:49:25;102163.22;;;2.80;88.77
7200;BME280;3641;49.082;8.200;2023-02-14T12:52:05;102164.09;;;2.81;88.29
7200;BME280;3641;49.082;8.200;2023-02-14T12:54:43;102161.75;;;2.90;87.98
7200;BME280;3641;49.082;8.200;2023-02-14T12:57:25;102167.31;;;2.87;88.10
7200;BME280;3641;49.082;8.200;2023-02-14T13:00:03;102169.63;;;2.63;89.33
7200;BME280;3641;49.082;8.200;2023-02-14T13:02:59;102164.91;;;2.83;89.39
7200;BME280;3641;49.082;8.200;2023-02-14T13:05:44;102164.31;;;2.78;89.01
7200;BME280;3641;49.082;8.200;2023-02-14T13:08:22;102159.16;;;2.89;88.26
7200;BME280;3641;49.082;8.200;2023-02-14T13:10:54;102148.34;;;2.89;88.44
7200;BME280;3641;49.082;8.200;2023-02-14T13:13:30;102150.66;;;2.95;88.40
7200;BME280;3641;49.082;8.200;2023-02-14T13:16:07;102147.09;;;2.95;87.84
7200;BME280;3641;49.082;8.200;2023-02-14T13:18:45;102138.69;;;2.85;89.18
7200;BME280;3641;49.082;8.200;2023-02-14T13:21:17;102133.34;;;2.99;87.72
7200;BME280;3641;49.082;8.200;2023-02-14T13:23:46;102129.50;;;3.03;88.05
7200;BME280;3641;49.082;8.200;2023-02-14T13:26:14;102133.28;;;3.15;87.14
7200;BME280;3641;49.082;8.200;2023-02-14T13:28:48;102130.78;;;3.12;87.90
7200;BME280;3641;49.082;8.200;2023-02-14T13:31:17;102129.16;;;3.09;88.18
7200;BME280;3641;49.082;8.200;2023-02-14T13:33:48;102120.03;;;2.96;89.13
7200;BME280;3641;49.082;8.200;2023-02-14T13:36:17;102121.56;;;2.86;90.21
7200;BME280;3641;49.082;8.200;2023-02-14T13:38:47;102118.78;;;2.87;90.13
7200;BME280;3641;49.082;8.200;2023-02-14T13:41:15;102118.91;;;3.00;89.03
7200;BME280;3641;49.082;8.200;2023-02-14T13:44:00;102104.34;;;3.03;89.15
7200;BME280;3641;49.082;8.200;2023-02-14T13:46:46;102112.78;;;3.27;87.53